Time;durP1;ratioP1;P1;durP2;ratioP2;P2;SDS_P1;SDS_P2;PMS_P1;PMS_P2;Temp;Humidity;BMP_temperature;BMP_pressure;BME280_temperature;BME280_humidity;BME280_pressure;Samples;Min_cycle;Max_cycle;Signal;HPM_P1;HPM_P2
2023/03/20 00:01:23;;;;;;;0.63;0.63;;;;;;;-4.06;77.03;99723.81;4846232;29;20057;-80
2023/03/20 00:03:51;;;;;;;0.57;0.57;;;;;;;-4.16;77.06;99707.94;4846021;29;20147;-80
2023/03/20 00:06:23;;;;;;;0.60;0.60;;;;;;;-3.95;77.70;99718.44;4876727;29;20060;-80
2023/03/20 00:08:52;;;;;;;0.73;0.73;;;;;;;-3.94;77.39;99720.09;4861254;29;20155;-81
2023/03/20 00:11:41;;;;;;;0.70;0.70;;;;;;;-4.05;77.38;99725.50;4861432;29;20057;-81
2023/03/20 00:14:11;;;;;;;0.60;0.60;;;;;;;-4.08;77.70;99719.63;4876819;29;20057;-81
2023/03/20 00:16:42;;;;;;;0.60;0.60;;;;;;;-4.09;77.98;99702.97;4861200;29;20144;-80
2023/03/20 00:19:14;;;;;;;0.60;0.60;;;;;;;-4.02;77.70;99719.13;4878094;29;20155;-81
2023/03/20 00:21:46;;;;;;;0.60;0.60;;;;;;;-4.18;77.83;99704.63;4861448;29;20496;-79
2023/03/20 00:24:14;;;;;;;0.57;0.57;;;;;;;-4.08;78.14;99709.09;4884872;29;20579;-81
2023/03/20 00:26:52;;;;;;;0.55;0.55;;;;;;;-4.11;77.90;99698.81;4899080;29;20077;-80
2023/03/20 00:29:26;;;;;;;0.68;0.68;;;;;;;-4.06;78.27;99702.72;4899440;29;20047;-79
2023/03/20 00:31:54;;;;;;;0.68;0.68;;;;;;;-4.17;78.15;99701.00;4916296;29;20515;-79
2023/03/20 00:34:23;;;;;;;0.65;0.65;;;;;;;-4.23;78.19;99703.34;4914956;29;20401;-80
2023/03/20 00:36:50;;;;;;;0.50;0.50;;;;;;;-4.22;78.54;99707.66;4883832;29;20099;-79
2023/03/20 00:39:18;;;;;;;0.60;0.60;;;;;;;-4.25;78.59;99687.66;4883547;29;20396;-81
2023/03/20 00:41:52;;;;;;;0.80;0.80;;;;;;;-4.16;78.51;99701.84;4916136;29;20040;-81
2023/03/20 00:44:33;;;;;;;0.70;0.70;;;;;;;-4.24;78.97;99701.69;4882462;29;20053;-80
2023/03/20 00:47:03;;;;;;;0.60;0.60;;;;;;;-4.30;78.73;99710.09;4899284;29;20054;-81
2023/03/20 00:49:34;;;;;;;0.80;0.80;;;;;;;-4.49;79.21;99674.78;4914962;29;20048;-80
2023/03/20 00:52:02;;;;;;;0.60;0.60;;;;;;;-4.36;78.92;99693.00;4915618;29;20056;-80
2023/03/20 00:54:30;;;;;;;0.70;0.70;;;;;;;-4.37;78.70;99686.91;4915047;29;20063;-81
2023/03/20 00:57:06;;;;;;;0.65;0.65;;;;;;;-4.46;78.78;99706.16;4883686;29;20085;-80
2023/03/20 00:59:40;;;;;;;0.60;0.60;;;;;;;-4.63;78.46;99690.97;4899264;29;20058;-81
2023/03/20 01:02:10;;;;;;;0.60;0.60;;;;;;;-4.83;78.79;99684.75;4883914;29;20103;-80
2023/03/20 01:04:40;;;;;;;0.80;0.80;;;;;;;-4.81;79.17;99691.56;4899010;29;20143;-80
2023/03/20 01:07:12;;;;;;;0.68;0.68;;;;;;;-4.81;79.28;99691.56;4899182;29;20052;-81
2023/03/20 01:09:42;;;;;;;0.60;0.60;;;;;;;-4.83;79.49;99704.00;4914432;29;20048;-82
2023/03/20 01:12:11;;;;;;;0.80;0.80;;;;;;;-4.90;79.27;99694.13;4915832;29;20582;-82
2023/03/20 01:14:41;;;;;;;0.80;0.80;;;;;;;-4.95;79.61;99691.88;4899193;29;20147;-81
2023/03/20 01:17:20;;;;;;;0.60;0.60;;;;;;;-4.85;79.74;99695.41;4898906;29;20044;-81
2023/03/20 01:19:47;;;;;;;0.82;0.82;;;;;;;-5.03;79.45;99692.50;4914579;29;20459;-81
2023/03/20 01:22:17;;;;;;;1.08;1.08;;;;;;;-5.24;79.64;99674.09;4915746;29;20079;-80
2023/03/20 01:24:44;;;;;;;0.70;0.70;;;;;;;-5.28;79.75;99671.81;4915192;29;20511;-80
2023/03/20 01:27:18;;;;;;;0.88;0.88;;;;;;;-5.14;79.93;99681.19;4915503;29;20048;-81
2023/03/20 01:29:45;;;;;;;0.80;0.80;;;;;;;-5.17;80.03;99684.91;4915144;29;20071;-81
2023/03/20 01:32:17;;;;;;;0.70;0.70;;;;;;;-5.22;80.33;99684.47;4883777;29;20510;-80
2023/03/20 01:34:47;;;;;;;0.80;0.80;;;;;;;-5.20;80.43;99679.91;4898494;29;20055;-80
2023/03/20 01:37:22;;;;;;;0.90;0.90;;;;;;;-5.26;80.61;99675.16;4898623;29;20070;-81
2023/03/20 01:39:50;;;;;;;0.80;0.80;;;;;;;-5.31;80.79;99680.81;4898537;29;20056;-80
2023/03/20 01:42:17;;;;;;;0.68;0.68;;;;;;;-5.35;81.13;99674.13;4898605;29;20529;-80
2023/03/20 01:44:45;;;;;;;0.70;0.70;;;;;;;-5.51;81.41;99665.84;4914913;29;20083;-79
2023/03/20 01:47:18;;;;;;;0.60;0.60;;;;;;;-5.58;81.51;99664.66;4898075;29;20056;-80
2023/03/20 01:50:23;;;;;;;0.70;0.70;;;;;;;-5.45;81.52;99667.94;4898185;29;20052;-79
2023/03/20 01:53:03;;;;;;;0.60;0.60;;;;;;;-5.66;81.76;99652.97;4898269;29;20048;-79
2023/03/20 01:55:53;;;;;;;0.80;0.80;;;;;;;-5.60;81.57;99650.78;4896917;29;20533;-79
2023/03/20 01:58:30;;;;;;;0.80;0.80;;;;;;;-5.58;81.81;99654.13;4883252;29;20142;-80
2023/03/20 02:00:58;;;;;;;0.80;0.80;;;;;;;-5.56;81.53;99650.41;4888036;29;20483;-80
2023/03/20 02:03:26;;;;;;;0.73;0.73;;;;;;;-5.65;81.47;99645.91;4895985;29;20052;-80
2023/03/20 02:06:14;;;;;;;0.98;0.98;;;;;;;-5.58;81.76;99659.41;4881599;29;20132;-81
2023/03/20 02:09:08;;;;;;;1.00;1.00;;;;;;;-5.69;81.77;99647.13;4882765;29;20458;-79
2023/03/20 02:11:43;;;;;;;0.80;0.80;;;;;;;-5.69;82.16;99658.47;4897210;29;20087;-80
2023/03/20 02:14:11;;;;;;;1.02;1.02;;;;;;;-5.93;82.22;99629.72;4897654;29;20048;-80
2023/03/20 02:16:52;;;;;;;0.70;0.70;;;;;;;-5.86;82.52;99648.50;4883561;29;20052;-80
2023/03/20 02:19:55;;;;;;;0.80;0.80;;;;;;;-5.98;82.85;99639.00;4897910;29;20052;-80
2023/03/20 02:23:00;;;;;;;1.00;1.00;;;;;;;-5.91;83.17;99651.47;4882474;29;20074;-78
2023/03/20 02:25:46;;;;;;;0.95;0.95;;;;;;;-6.00;83.29;99652.28;4897758;29;20052;-81
2023/03/20 02:28:27;;;;;;;0.70;0.70;;;;;;;-6.03;83.20;99655.13;4866625;29;20052;-80
2023/03/20 02:31:04;;;;;;;0.93;0.93;;;;;;;-5.99;83.57;99651.31;4882716;29;20456;-80
2023/03/20 02:33:58;;;;;;;0.75;0.75;;;;;;;-5.96;83.61;99655.47;4867081;29;20060;-80
2023/03/20 02:37:14;;;;;;;0.80;0.80;;;;;;;-5.98;83.58;99665.28;4897469;29;20571;-80
2023/03/20 02:39:45;;;;;;;0.90;0.90;;;;;;;-5.96;83.57;99660.72;4897429;29;20078;-81
2023/03/20 02:42:37;;;;;;;0.93;0.93;;;;;;;-5.96;83.71;99656.31;4914459;29;20055;-81
2023/03/20 02:45:17;;;;;;;0.80;0.80;;;;;;;-6.09;83.93;99628.50;4881968;29;20151;-82
2023/03/20 02:48:02;;;;;;;0.93;0.93;;;;;;;-5.94;83.81;99638.63;4882133;29;20207;-81
2023/03/20 02:50:33;;;;;;;1.00;1.00;;;;;;;-5.91;84.39;99651.47;4881907;29;20135;-81
2023/03/20 02:53:45;;;;;;;0.73;0.73;;;;;;;-5.83;84.51;99639.53;4897450;29;20075;-80
2023/03/20 02:56:31;;;;;;;0.75;0.75;;;;;;;-5.91;84.11;99642.75;4822099;29;20066;-80
2023/03/20 02:59:16;;;;;;;1.00;1.00;;;;;;;-5.97;84.58;99640.69;4822331;29;20561;-81
2023/03/20 03:01:52;;;;;;;0.93;0.93;;;;;;;-6.08;84.85;99632.81;4837244;29;20058;-80
2023/03/20 03:04:25;;;;;;;0.60;0.60;;;;;;;-6.04;84.89;99645.56;4822488;29;20081;-80
2023/03/20 03:06:54;;;;;;;0.80;0.80;;;;;;;-5.99;85.14;99639.97;4823638;29;20144;-80
2023/03/20 03:09:32;;;;;;;0.90;0.90;;;;;;;-6.06;85.62;99633.53;4825689;29;20062;-80
2023/03/20 03:12:08;;;;;;;0.70;0.70;;;;;;;-5.99;85.69;99634.69;4840890;29;20098;-79
2023/03/20 03:14:56;;;;;;;0.90;0.90;;;;;;;-6.05;85.90;99615.00;4825253;29;20490;-81
2023/03/20 03:17:35;;;;;;;0.60;0.60;;;;;;;-5.97;85.77;99612.59;4824794;29;20061;-80
2023/03/20 03:20:11;;;;;;;0.82;0.82;;;;;;;-5.92;85.71;99622.72;4810676;29;20058;-81
2023/03/20 03:22:39;;;;;;;1.00;1.00;;;;;;;-5.92;85.73;99628.78;4824962;29;20056;-80
2023/03/20 03:25:17;;;;;;;1.00;1.00;;;;;;;-6.05;85.85;99606.25;4840616;29;20050;-81
2023/03/20 03:27:48;;;;;;;0.95;0.95;;;;;;;-5.93;85.74;99623.66;4824787;29;20054;-81
2023/03/20 03:30:25;;;;;;;0.80;0.80;;;;;;;-5.98;86.09;99625.84;4825579;29;20514;-81
2023/03/20 03:33:08;;;;;;;1.00;1.00;;;;;;;-6.04;86.17;99618.47;4857398;29;20060;-81
2023/03/20 03:35:36;;;;;;;0.70;0.70;;;;;;;-6.34;86.20;99602.38;4900785;29;20151;-82
2023/03/20 03:38:23;;;;;;;1.05;1.05;;;;;;;-6.19;86.14;99620.53;4902775;29;20147;-83
2023/03/20 03:41:30;;;;;;;1.05;1.05;;;;;;;-6.24;85.99;99620.06;4900125;29;20054;-82
2023/03/20 03:44:10;;;;;;;1.10;1.10;;;;;;;-6.29;86.18;99616.97;4900102;29;20107;-82
2023/03/20 03:46:55;;;;;;;1.05;1.05;;;;;;;-6.45;86.09;99610.31;4900167;29;20048;-82
2023/03/20 03:49:30;;;;;;;0.90;0.90;;;;;;;-6.33;86.40;99609.34;4895442;29;20059;-81
2023/03/20 03:52:09;;;;;;;0.90;0.90;;;;;;;-6.44;86.08;99593.56;4878774;29;20459;-81
2023/03/20 03:54:42;;;;;;;1.10;1.10;;;;;;;-6.32;86.46;99611.00;4863785;29;20573;-81
2023/03/20 03:57:36;;;;;;;0.88;0.88;;;;;;;-6.17;86.31;99608.09;4894796;29;20059;-82
2023/03/20 04:00:16;;;;;;;1.15;1.15;;;;;;;-6.16;86.11;99602.72;4863511;29;20053;-82
2023/03/20 04:02:46;;;;;;;0.90;0.90;;;;;;;-6.06;86.13;99613.31;4878076;29;20048;-82
2023/03/20 04:05:17;;;;;;;1.00;1.00;;;;;;;-5.93;85.75;99598.19;4878440;29;20111;-81
2023/03/20 04:07:46;;;;;;;1.00;1.00;;;;;;;-5.82;85.58;99605.22;4878080;29;20056;-82
2023/03/20 04:10:13;;;;;;;0.75;0.75;;;;;;;-5.83;85.06;99600.91;4878720;29;20135;-81
2023/03/20 04:12:44;;;;;;;0.90;0.90;;;;;;;-5.83;84.95;99600.09;4877077;29;20054;-80
2023/03/20 04:15:13;;;;;;;0.90;0.90;;;;;;;-5.75;85.16;99590.59;4879888;29;20082;-83
2023/03/20 04:17:43;;;;;;;0.82;0.82;;;;;;;-5.73;84.99;99588.69;4879307;29;20084;-80
2023/03/20 04:20:13;;;;;;;1.08;1.08;;;;;;;-5.76;84.79;99586.31;4880635;29;20172;-81
2023/03/20 04:22:41;;;;;;;1.20;1.10;;;;;;;-5.74;84.59;99594.09;4918784;29;20079;-80
2023/03/20 04:25:25;;;;;;;0.77;0.77;;;;;;;-5.81;84.60;99577.97;4908342;29;20063;-81
2023/03/20 04:27:55;;;;;;;1.10;1.10;;;;;;;-5.73;84.49;99591.31;4863760;29;20053;-81
2023/03/20 04:30:33;;;;;;;1.00;1.00;;;;;;;-5.64;84.43;99591.53;4885635;29;20054;-82
2023/03/20 04:33:16;;;;;;;0.98;0.98;;;;;;;-5.60;84.41;99582.41;4902903;29;20048;-82
2023/03/20 04:36:07;;;;;;;0.93;0.93;;;;;;;-5.44;84.36;99590.72;4820448;29;20073;-81
2023/03/20 04:38:41;;;;;;;1.10;1.10;;;;;;;-5.28;83.93;99598.97;4789968;29;20056;-81
2023/03/20 04:41:08;;;;;;;0.80;0.80;;;;;;;-5.20;83.48;99595.69;4797635;29;20096;-81
2023/03/20 04:43:35;;;;;;;0.85;0.85;;;;;;;-5.01;83.14;99605.53;4783490;29;20483;-82
2023/03/20 04:46:03;;;;;;;0.90;0.90;;;;;;;-4.96;82.88;99590.16;4805782;29;20483;-82
2023/03/20 04:48:30;;;;;;;0.90;0.90;;;;;;;-4.72;82.56;99596.91;4792309;29;20267;-83
2023/03/20 04:51:00;;;;;;;0.90;0.90;;;;;;;-4.52;82.18;99590.75;4781716;29;20058;-81
2023/03/20 04:53:38;;;;;;;0.80;0.80;;;;;;;-4.31;81.81;99590.66;4801417;29;20094;-81
2023/03/20 04:56:06;;;;;;;0.80;0.80;;;;;;;-4.09;81.14;99596.69;4786527;29;20058;-80
2023/03/20 04:58:35;;;;;;;0.90;0.90;;;;;;;-4.11;80.69;99585.44;4799914;29;20058;-80
2023/03/20 05:01:03;;;;;;;0.82;0.82;;;;;;;-3.91;80.56;99576.59;4819338;29;20062;-80
2023/03/20 05:03:30;;;;;;;0.68;0.68;;;;;;;-3.69;79.98;99572.84;4816751;29;20080;-81
2023/03/20 05:05:58;;;;;;;0.80;0.80;;;;;;;-3.22;79.10;99580.84;4801996;29;20062;-82
2023/03/20 05:08:26;;;;;;;0.80;0.80;;;;;;;-2.87;77.90;99589.94;4787982;29;20143;-82
2023/03/20 05:10:58;;;;;;;0.80;0.80;;;;;;;-2.52;76.68;99588.41;4802752;29;20051;-82
2023/03/20 05:13:44;;;;;;;0.70;0.70;;;;;;;-2.34;75.12;99575.25;4886899;29;20063;-81
2023/03/20 05:16:26;;;;;;;0.60;0.60;;;;;;;-1.93;74.28;99600.31;4898304;29;20059;-80
2023/03/20 05:18:59;;;;;;;0.77;0.77;;;;;;;-1.72;72.90;99593.91;4892677;29;20056;-82
2023/03/20 05:21:48;;;;;;;0.77;0.77;;;;;;;-1.72;71.86;99573.59;4557124;29;10001017;-84
2023/03/20 05:24:34;;;;;;;0.80;0.80;;;;;;;-1.37;70.65;99585.09;4896221;29;20570;-81
2023/03/20 05:27:30;;;;;;;0.70;0.70;;;;;;;-1.25;69.44;99575.09;4878800;29;20647;-81
2023/03/20 05:30:22;;;;;;;0.60;0.60;;;;;;;-0.96;68.44;99594.19;4897014;29;20056;-81
2023/03/20 05:33:08;;;;;;;0.82;0.82;;;;;;;-0.49;66.22;99588.47;4901245;29;20550;-82
2023/03/20 05:35:47;;;;;;;0.70;0.70;;;;;;;-0.49;65.08;99579.69;4914638;29;20056;-80
2023/03/20 05:38:35;;;;;;;0.65;0.65;;;;;;;-0.48;65.09;99579.53;4899954;29;20142;-82
2023/03/20 05:41:22;;;;;;;0.82;0.82;;;;;;;-0.16;64.12;99570.00;4897875;29;20064;-81
2023/03/20 05:44:09;;;;;;;0.60;0.60;;;;;;;0.05;62.63;99582.00;4881907;29;20058;-81
2023/03/20 05:47:13;;;;;;;0.73;0.73;;;;;;;-0.06;62.07;99569.88;4897834;29;20094;-82
2023/03/20 05:50:01;;;;;;;0.90;0.90;;;;;;;0.10;61.68;99587.66;4898119;29;20515;-81
2023/03/20 05:52:50;;;;;;;0.70;0.70;;;;;;;0.17;61.18;99581.53;4914434;29;20092;-81
2023/03/20 05:55:43;;;;;;;1.05;1.05;;;;;;;0.39;58.85;99582.72;4897334;29;20531;-81
2023/03/20 05:58:44;;;;;;;1.00;1.00;;;;;;;0.31;57.31;99584.56;4896979;29;20048;-80
2023/03/20 06:01:46;;;;;;;1.00;1.00;;;;;;;0.40;57.00;99586.22;4871114;29;20713;-82
2023/03/20 06:04:26;;;;;;;0.90;0.90;;;;;;;0.53;56.53;99583.91;4882298;29;20048;-81
2023/03/20 06:07:26;;;;;;;0.90;0.90;;;;;;;0.81;55.54;99589.72;4803924;29;20139;-82
2023/03/20 06:10:05;;;;;;;0.98;0.98;;;;;;;0.98;54.73;99579.88;4790794;29;20162;-81
2023/03/20 06:12:34;;;;;;;0.90;0.90;;;;;;;1.23;54.08;99579.84;4803971;29;20051;-81
2023/03/20 06:15:01;;;;;;;0.90;0.90;;;;;;;1.12;54.08;99575.72;4818909;29;20152;-82
2023/03/20 06:17:32;;;;;;;0.70;0.70;;;;;;;1.07;54.87;99591.34;4818286;29;20127;-80
2023/03/20 06:20:02;;;;;;;0.75;0.75;;;;;;;0.85;54.45;99575.09;4819265;29;20166;-82
2023/03/20 06:22:37;;;;;;;0.80;0.80;;;;;;;0.74;55.23;99577.28;4803659;29;20061;-81
2023/03/20 06:25:07;;;;;;;0.90;0.90;;;;;;;0.72;54.84;99565.97;4804806;29;20520;-82
2023/03/20 06:27:40;;;;;;;0.80;0.80;;;;;;;0.57;55.05;99565.81;4818833;29;20046;-81
2023/03/20 06:30:08;;;;;;;1.00;1.00;;;;;;;0.52;55.50;99565.47;4819386;29;20070;-82
2023/03/20 06:32:46;;;;;;;0.80;0.80;;;;;;;0.60;55.42;99589.38;4803666;29;20050;-81
2023/03/20 06:35:16;;;;;;;0.90;0.90;;;;;;;0.48;55.60;99572.97;4819844;29;20167;-82
2023/03/20 06:37:46;;;;;;;0.85;0.85;;;;;;;0.70;55.53;99573.28;4804381;29;20128;-81
2023/03/20 06:40:21;;;;;;;0.63;0.63;;;;;;;0.74;55.32;99583.41;4806109;29;20693;-82
2023/03/20 06:42:49;;;;;;;0.85;0.85;;;;;;;0.82;55.49;99559.47;4844116;29;20058;-82
2023/03/20 06:45:17;;;;;;;1.00;1.00;;;;;;;1.11;54.97;99563.41;4887911;29;20514;-81
2023/03/20 06:47:50;;;;;;;1.10;1.10;;;;;;;1.30;54.59;99556.88;4922328;29;20075;-81
2023/03/20 06:50:20;;;;;;;0.80;0.80;;;;;;;1.65;54.23;99566.22;4906338;29;20545;-82
2023/03/20 06:52:48;;;;;;;1.00;1.00;;;;;;;1.75;53.81;99566.03;4870041;29;20059;-81
2023/03/20 06:55:49;;;;;;;0.80;0.80;;;;;;;1.95;52.95;99564.59;4903089;29;20048;-84
2023/03/20 06:58:17;;;;;;;0.82;0.82;;;;;;;2.05;52.65;99561.69;4903400;29;20155;-82
2023/03/20 07:00:54;;;;;;;0.85;0.85;;;;;;;1.88;52.25;99550.31;4902139;29;20044;-82
2023/03/20 07:03:27;;;;;;;0.82;0.82;;;;;;;2.05;52.15;99566.19;4901159;29;20052;-82
2023/03/20 07:05:56;;;;;;;1.10;1.10;;;;;;;2.19;52.01;99548.63;4900688;29;20092;-81
2023/03/20 07:08:24;;;;;;;0.98;0.98;;;;;;;2.63;51.46;99563.94;4885293;29;20052;-81
2023/03/20 07:10:53;;;;;;;0.90;0.90;;;;;;;2.70;49.92;99538.22;4900738;29;20070;-81
2023/03/20 07:13:20;;;;;;;1.00;1.00;;;;;;;2.81;49.94;99567.94;4869813;29;20052;-81
2023/03/20 07:15:54;;;;;;;0.82;0.82;;;;;;;2.67;50.25;99534.09;4916235;29;20047;-83
2023/03/20 07:18:39;;;;;;;0.90;0.90;;;;;;;2.90;49.60;99538.53;4884312;29;20055;-82
2023/03/20 07:21:10;;;;;;;0.80;0.80;;;;;;;3.04;49.11;99553.75;4901417;29;20052;-83
2023/03/20 07:23:51;;;;;;;0.90;0.90;;;;;;;3.07;48.94;99533.88;4884919;29;20059;-82
2023/03/20 07:26:21;;;;;;;1.00;1.00;;;;;;;3.14;48.90;99534.78;4885864;29;20295;-82
2023/03/20 07:28:50;;;;;;;0.90;0.90;;;;;;;3.38;49.06;99550.53;4901074;29;20044;-81
2023/03/20 07:31:45;;;;;;;0.90;0.90;;;;;;;3.01;49.26;99525.59;4901296;29;20071;-82
2023/03/20 07:34:35;;;;;;;0.90;0.90;;;;;;;3.25;48.82;99532.50;4891745;29;20056;-82
2023/03/20 07:37:31;;;;;;;0.88;0.88;;;;;;;3.45;48.37;99511.41;4917490;29;20530;-81
2023/03/20 07:40:05;;;;;;;0.80;0.80;;;;;;;3.48;47.79;99553.72;4885820;29;20155;-82
2023/03/20 07:42:46;;;;;;;0.82;0.82;;;;;;;2.88;47.88;99512.06;4886223;29;20135;-80
2023/03/20 07:45:58;;;;;;;0.82;0.82;;;;;;;2.67;48.57;99507.44;4917147;29;20048;-81
2023/03/20 07:48:29;;;;;;;0.90;0.90;;;;;;;2.66;48.20;99512.94;4870182;29;20048;-83
2023/03/20 07:50:59;;;;;;;0.98;0.98;;;;;;;2.65;47.29;99513.97;4900126;29;20487;-82
2023/03/20 07:53:27;;;;;;;0.90;0.90;;;;;;;2.90;47.13;99522.53;4899578;29;20082;-82
2023/03/20 07:55:54;;;;;;;0.90;0.90;;;;;;;3.02;47.25;99519.25;4884810;29;20044;-81
2023/03/20 07:58:27;;;;;;;0.98;0.98;;;;;;;3.21;47.30;99531.19;4900344;29;20139;-82
2023/03/20 08:00:57;;;;;;;0.90;0.90;;;;;;;3.61;46.92;99534.41;4884056;29;20150;-82
2023/03/20 08:03:26;;;;;;;1.20;1.10;;;;;;;3.83;46.52;99523.78;4899809;29;20052;-82
2023/03/20 08:06:08;;;;;;;1.00;1.00;;;;;;;4.36;45.51;99534.19;4916693;29;20055;-82
2023/03/20 08:08:35;;;;;;;0.90;0.90;;;;;;;4.51;44.85;99521.59;4883675;29;20087;-82
2023/03/20 08:11:04;;;;;;;0.90;0.90;;;;;;;4.68;44.08;99514.91;4899880;29;20044;-82
2023/03/20 08:13:33;;;;;;;0.90;0.90;;;;;;;5.18;43.71;99533.59;4915703;29;20056;-82
2023/03/20 08:16:00;;;;;;;0.90;0.90;;;;;;;5.51;41.94;99523.06;4899275;29;20048;-82
2023/03/20 08:18:28;;;;;;;0.90;0.90;;;;;;;5.80;41.00;99529.16;4868298;29;20084;-82
2023/03/20 08:20:55;;;;;;;0.95;0.95;;;;;;;5.85;40.13;99514.13;4899600;29;20074;-82
2023/03/20 08:23:22;;;;;;;1.10;1.10;;;;;;;6.39;39.42;99525.81;4916374;29;20048;-82
2023/03/20 08:25:50;;;;;;;1.00;1.00;;;;;;;6.66;38.37;99507.91;4898873;29;20051;-82
2023/03/20 08:28:18;;;;;;;1.00;1.00;;;;;;;6.93;38.10;99508.69;4899875;29;20048;-82
2023/03/20 08:30:46;;;;;;;1.08;1.08;;;;;;;6.94;37.98;99512.22;4899743;29;20044;-82
2023/03/20 08:33:15;;;;;;;1.08;1.08;;;;;;;6.79;37.82;99490.97;4899422;29;20060;-82
2023/03/20 08:35:42;;;;;;;0.85;0.85;;;;;;;6.79;38.58;99514.28;4915756;29;20078;-82
2023/03/20 08:38:11;;;;;;;0.90;0.90;;;;;;;6.71;38.17;99493.88;4884054;29;20115;-82
2023/03/20 08:40:41;;;;;;;0.90;0.90;;;;;;;6.59;38.34;99492.84;4902000;29;20079;-82
2023/03/20 08:43:09;;;;;;;0.90;0.90;;;;;;;6.90;38.28;99509.09;4916290;29;20055;-82
2023/03/20 08:45:36;;;;;;;0.80;0.80;;;;;;;7.32;38.29;99509.66;4898612;29;20052;-82
2023/03/20 08:48:04;;;;;;;1.00;1.00;;;;;;;7.47;37.54;99516.59;4915884;29;20091;-82
2023/03/20 08:50:31;;;;;;;1.00;1.00;;;;;;;7.67;36.93;99501.25;4915516;29;20055;-83
2023/03/20 08:52:58;;;;;;;1.10;1.10;;;;;;;7.79;36.68;99504.09;4915516;29;20067;-83
2023/03/20 08:55:26;;;;;;;0.90;0.90;;;;;;;8.10;35.97;99494.41;4898672;29;20144;-83
2023/03/20 08:57:56;;;;;;;1.00;1.00;;;;;;;8.24;35.33;99491.41;4915803;29;20185;-83
2023/03/20 09:00:26;;;;;;;0.93;0.93;;;;;;;8.13;35.43;99486.75;4873584;29;20051;-85
2023/03/20 09:02:53;;;;;;;1.08;1.08;;;;;;;8.79;34.99;99500.78;4915494;29;20052;-82
2023/03/20 09:05:21;;;;;;;1.00;1.00;;;;;;;9.01;34.45;99488.53;4917499;29;20046;-83
2023/03/20 09:07:48;;;;;;;1.00;1.00;;;;;;;8.80;34.27;99491.63;4891848;29;20051;-83
2023/03/20 09:10:16;;;;;;;0.95;0.95;;;;;;;8.98;34.16;99475.50;4901391;29;20056;-83
2023/03/20 09:12:43;;;;;;;0.90;0.90;;;;;;;8.66;34.27;99466.72;4917374;29;20051;-84
2023/03/20 09:15:10;;;;;;;1.00;1.00;;;;;;;8.60;34.46;99495.31;4920600;29;20052;-83
2023/03/20 09:17:38;;;;;;;0.90;0.90;;;;;;;8.38;34.98;99491.31;4570317;29;10000101;-82
2023/03/20 09:20:07;;;;;;;0.90;0.90;;;;;;;8.18;34.73;99481.53;4923054;29;20803;-83
2023/03/20 09:22:34;;;;;;;1.00;1.00;;;;;;;8.30;34.77;99486.22;4905014;29;20051;-82
2023/03/20 09:25:02;;;;;;;1.10;1.10;;;;;;;9.13;33.47;99487.81;4921905;29;20060;-82
2023/03/20 09:27:33;;;;;;;1.00;1.00;;;;;;;10.30;32.30;99482.19;4880969;29;20048;-83
2023/03/20 09:30:01;;;;;;;1.10;1.10;;;;;;;10.66;31.23;99485.75;4912520;29;20088;-84
2023/03/20 09:32:29;;;;;;;1.10;1.10;;;;;;;11.03;30.58;99476.38;4876826;29;20052;-84
2023/03/20 09:34:59;;;;;;;1.10;1.10;;;;;;;11.42;30.21;99462.34;4897709;29;20056;-84
2023/03/20 09:37:34;;;;;;;1.00;1.00;;;;;;;10.70;30.40;99455.38;4887025;29;20055;-83
2023/03/20 09:40:05;;;;;;;0.90;0.90;;;;;;;10.21;31.15;99446.59;4894983;29;20099;-84
2023/03/20 09:43:17;;;;;;;0.90;0.90;;;;;;;10.03;31.35;99462.88;4911405;29;20150;-84
2023/03/20 09:45:50;;;;;;;0.93;0.93;;;;;;;9.68;31.56;99452.75;4911785;29;20059;-83
2023/03/20 09:49:09;;;;;;;1.00;1.00;;;;;;;9.57;31.89;99459.75;4901765;29;20047;-84
2023/03/20 09:51:41;;;;;;;1.00;1.00;;;;;;;10.12;31.93;99447.97;4876074;29;20055;-83
2023/03/20 09:54:27;;;;;;;1.00;1.00;;;;;;;10.48;31.24;99449.75;4893942;29;20647;-82
2023/03/20 09:56:56;;;;;;;1.00;1.00;;;;;;;10.33;31.18;99434.00;4884432;29;20082;-83
2023/03/20 09:59:25;;;;;;;1.10;1.10;;;;;;;11.06;30.67;99448.06;4903731;29;20052;-84
2023/03/20 10:01:59;;;;;;;1.00;1.00;;;;;;;12.19;29.41;99431.38;4899318;29;20048;-83
2023/03/20 10:04:28;;;;;;;1.00;1.00;;;;;;;11.85;29.52;99433.97;4887628;29;20087;-83
2023/03/20 10:06:57;;;;;;;1.00;1.00;;;;;;;12.20;29.76;99436.53;4911850;29;20059;-83
2023/03/20 10:09:32;;;;;;;1.00;1.00;;;;;;;12.83;29.19;99436.44;4903708;29;20082;-83
2023/03/20 10:12:17;;;;;;;0.90;0.90;;;;;;;11.98;29.37;99422.09;4918272;29;20052;-83
2023/03/20 10:15:09;;;;;;;0.90;0.90;;;;;;;11.33;30.41;99412.44;4921721;29;20083;-83
2023/03/20 10:17:46;;;;;;;;;;;;;;;11.90;30.49;99410.59;4897583;29;20056;-82
2023/03/20 10:20:25;;;;;;;0.90;0.90;;;;;;;12.46;29.67;99404.50;4916157;29;20314;-84
2023/03/20 10:22:57;;;;;;;0.90;0.90;;;;;;;12.91;29.07;99407.06;4899519;29;20777;-84
2023/03/20 10:25:36;;;;;;;0.90;0.90;;;;;;;12.80;28.93;99402.53;4907598;29;20121;-83
2023/03/20 10:28:16;;;;;;;0.90;0.90;;;;;;;12.56;29.06;99405.47;4884413;29;20151;-83
2023/03/20 10:31:01;;;;;;;0.90;0.90;;;;;;;11.84;29.89;99399.91;4928410;29;20051;-87
2023/03/20 10:33:38;;;;;;;0.88;0.88;;;;;;;12.28;29.89;99402.81;4895374;29;20100;-84
2023/03/20 10:36:18;;;;;;;;;;;;;;;;;;;;;
2023/03/20 10:38:47;;;;;;;0.90;0.90;;;;;;;12.72;29.00;99394.84;4902286;29;20534;-83
2023/03/20 10:41:31;;;;;;;1.10;1.10;;;;;;;13.75;28.60;99378.78;4927335;29;20063;-83
2023/03/20 10:43:59;;;;;;;1.00;1.00;;;;;;;14.39;28.16;99388.03;4889580;29;20062;-82
2023/03/20 10:46:30;;;;;;;1.00;1.00;;;;;;;14.82;26.85;99388.88;4896759;29;20056;-83
2023/03/20 10:49:07;;;;;;;1.00;1.00;;;;;;;14.57;26.69;99376.78;4903804;29;20048;-84
2023/03/20 10:51:46;;;;;;;1.00;1.00;;;;;;;15.41;26.53;99355.16;4904946;29;20127;-84
2023/03/20 10:54:29;;;;;;;1.00;1.00;;;;;;;15.93;26.16;99371.34;4886180;29;20079;-84
2023/03/20 10:57:05;;;;;;;1.00;1.00;;;;;;;16.04;26.06;99378.41;4883054;29;20125;-84
2023/03/20 10:59:52;;;;;;;0.90;0.90;;;;;;;16.54;25.42;99340.53;4903080;29;20099;-85
2023/03/20 11:02:22;;;;;;;0.90;0.90;;;;;;;16.20;25.42;99362.09;4904872;29;20059;-84
2023/03/20 11:04:52;;;;;;;0.80;0.80;;;;;;;16.10;25.69;99362.09;4867775;29;21121;-84
2023/03/20 11:10:59;;;;;;;0.90;0.90;;;;;;;16.31;25.32;99344.66;4871267;29;20570;-84
2023/03/20 11:13:42;;;;;;;0.90;0.90;;;;;;;15.96;25.83;99345.50;4837055;29;20484;-84
2023/03/20 11:16:32;;;;;;;0.90;0.90;;;;;;;16.54;25.34;99358.81;4875474;29;20049;-84
2023/03/20 11:19:07;;;;;;;0.90;0.90;;;;;;;16.67;25.19;99355.50;4841576;29;20070;-84
2023/03/20 11:21:44;;;;;;;0.90;0.90;;;;;;;17.52;24.29;99328.19;4836102;29;20161;-84
2023/03/20 11:24:29;;;;;;;0.80;0.80;;;;;;;16.79;24.84;99339.69;4855209;29;20049;-84
2023/03/20 11:27:25;;;;;;;0.90;0.90;;;;;;;16.42;25.37;99342.75;4838267;29;20143;-84
2023/03/20 11:30:00;;;;;;;0.85;0.85;;;;;;;17.02;24.88;99338.25;4865818;29;20487;-83
2023/03/20 11:32:49;;;;;;;0.90;0.90;;;;;;;17.51;24.84;99310.16;4819507;29;20427;-84
2023/03/20 11:35:25;;;;;;;0.90;0.90;;;;;;;17.46;24.34;99334.75;4852575;29;20048;-84
2023/03/20 11:38:06;;;;;;;0.80;0.80;;;;;;;17.62;24.35;99316.34;4881898;29;20112;-84
2023/03/20 11:40:35;;;;;;;0.90;0.90;;;;;;;17.33;24.55;99319.81;4868062;29;20095;-84
2023/03/20 11:43:17;;;;;;;0.90;0.90;;;;;;;17.38;24.67;99324.44;4915472;29;20052;-85
2023/03/20 11:45:48;;;;;;;0.70;0.70;;;;;;;17.45;24.58;99310.50;4870391;29;20067;-85
2023/03/20 11:48:36;;;;;;;0.80;0.80;;;;;;;17.16;25.02;99327.53;4903232;29;20123;-84
2023/03/20 11:51:14;;;;;;;0.82;0.82;;;;;;;17.20;24.84;99315.00;4925283;29;20059;-85
2023/03/20 11:54:00;;;;;;;0.90;0.90;;;;;;;17.40;24.66;99305.06;4900218;29;20052;-85
2023/03/20 11:56:30;;;;;;;0.90;0.90;;;;;;;16.95;25.08;99326.81;4920185;29;20063;-84
2023/03/20 11:59:18;;;;;;;0.90;0.90;;;;;;;17.67;24.62;99299.97;4889369;29;20108;-84
2023/03/20 12:01:51;;;;;;;0.90;0.90;;;;;;;18.13;23.84;99296.09;4911082;29;20044;-84
2023/03/20 12:04:28;;;;;;;0.80;0.80;;;;;;;17.43;24.69;99290.84;4887125;29;20083;-84
2023/03/20 12:07:03;;;;;;;0.82;0.82;;;;;;;17.37;25.27;99286.50;4899646;29;20067;-84
2023/03/20 12:09:48;;;;;;;0.80;0.80;;;;;;;17.55;25.04;99283.16;4868810;29;20058;-84
2023/03/20 12:12:22;;;;;;;0.90;0.90;;;;;;;17.22;25.49;99288.25;4916608;29;20099;-84
2023/03/20 12:14:54;;;;;;;;;;;;;;;17.77;25.04;99286.25;4916951;29;20094;-84
2023/03/20 12:17:24;;;;;;;0.80;0.80;;;;;;;17.12;25.11;99282.84;4899267;29;19937;-84
2023/03/20 12:20:10;;;;;;;0.80;0.80;;;;;;;16.35;25.62;99264.03;4887365;29;20049;-83
2023/03/20 12:22:53;;;;;;;0.80;0.80;;;;;;;16.16;26.29;99271.16;4888997;29;20127;-85